sensor_id;sensor_type;location;lat;lon;timestamp;pressure;altitude;pressure_sealevel;temperature;humidity
70314;BME280;57725;47.526;18.986;2022-11-15T00:00:34;100297.94;;;8.76;92.69
70314;BME280;57725;47.526;18.986;2022-11-15T00:02:59;100306.63;;;8.76;93.23
70314;BME280;57725;47.526;18.986;2022-11-15T00:05:25;100299.69;;;8.75;93.05
70314;BME280;57725;47.526;18.986;2022-11-15T00:07:50;100295.38;;;8.74;92.65
70314;BME280;57725;47.526;18.986;2022-11-15T00:10:16;100292.81;;;8.73;92.98
70314;BME280;57725;47.526;18.986;2022-11-15T00:12:41;100300.59;;;8.74;92.93
70314;BME280;57725;47.526;18.986;2022-11-15T00:15:10;100300.59;;;8.74;92.93
70314;BME280;57725;47.526;18.986;2022-11-15T00:17:35;100303.19;;;8.74;93.09
70314;BME280;57725;47.526;18.986;2022-11-15T00:20:01;100297.13;;;8.74;92.86
70314;BME280;57725;47.526;18.986;2022-11-15T00:22:33;100306.69;;;8.73;93.06
70314;BME280;57725;47.526;18.986;2022-11-15T00:24:59;100304.94;;;8.74;92.71
70314;BME280;57725;47.526;18.986;2022-11-15T00:27:27;100298.88;;;8.73;92.64
70314;BME280;57725;47.526;18.986;2022-11-15T00:29:52;100294.56;;;8.72;93.06
70314;BME280;57725;47.526;18.986;2022-11-15T00:32:17;100291.09;;;8.71;92.92
70314;BME280;57725;47.526;18.986;2022-11-15T00:34:45;100286.72;;;8.72;92.96
70314;BME280;57725;47.526;18.986;2022-11-15T00:37:10;100285.03;;;8.71;92.76
70314;BME280;57725;47.526;18.986;2022-11-15T00:39:36;100276.34;;;8.70;93.09
70314;BME280;57725;47.526;18.986;2022-11-15T00:42:01;100276.38;;;8.69;92.92
70314;BME280;57725;47.526;18.986;2022-11-15T00:44:26;100268.53;;;8.70;92.83
70314;BME280;57725;47.526;18.986;2022-11-15T00:46:52;100278.94;;;8.70;92.78
70314;BME280;57725;47.526;18.986;2022-11-15T00:49:22;100271.13;;;8.70;92.69
70314;BME280;57725;47.526;18.986;2022-11-15T00:51:47;100270.28;;;8.70;92.94
70314;BME280;57725;47.526;18.986;2022-11-15T00:54:15;100272.00;;;8.71;93.27
70314;BME280;57725;47.526;18.986;2022-11-15T00:56:40;100273.78;;;8.69;92.70
70314;BME280;57725;47.526;18.986;2022-11-15T00:59:05;100272.91;;;8.68;92.97
70314;BME280;57725;47.526;18.986;2022-11-15T01:01:33;100265.97;;;8.69;93.08
70314;BME280;57725;47.526;18.986;2022-11-15T01:04:01;100265.97;;;8.69;92.72
70314;BME280;57725;47.526;18.986;2022-11-15T01:06:26;100273.78;;;8.69;92.77
70314;BME280;57725;47.526;18.986;2022-11-15T01:08:54;100275.53;;;8.68;92.94
70314;BME280;57725;47.526;18.986;2022-11-15T01:11:22;100270.31;;;8.68;92.77
70314;BME280;57725;47.526;18.986;2022-11-15T01:13:47;100255.53;;;8.69;93.03
70314;BME280;57725;47.526;18.986;2022-11-15T01:16:18;100259.91;;;8.68;92.87
70314;BME280;57725;47.526;18.986;2022-11-15T01:18:46;100256.44;;;8.68;92.82
70314;BME280;57725;47.526;18.986;2022-11-15T01:21:14;100255.56;;;8.67;92.80
70314;BME280;57725;47.526;18.986;2022-11-15T01:23:40;100247.78;;;8.66;92.80
70314;BME280;57725;47.526;18.986;2022-11-15T01:26:12;100244.28;;;8.67;92.95
70314;BME280;57725;47.526;18.986;2022-11-15T01:28:39;100247.75;;;8.67;92.92
70314;BME280;57725;47.526;18.986;2022-11-15T01:31:18;100243.44;;;8.66;92.86
70314;BME280;57725;47.526;18.986;2022-11-15T01:33:44;100246.91;;;8.67;92.93
70314;BME280;57725;47.526;18.986;2022-11-15T01:36:15;100247.75;;;8.67;92.98
70314;BME280;57725;47.526;18.986;2022-11-15T01:38:43;100238.19;;;8.68;93.14
70314;BME280;57725;47.526;18.986;2022-11-15T01:41:17;100238.22;;;8.66;93.14
70314;BME280;57725;47.526;18.986;2022-11-15T01:43:43;100238.22;;;8.66;92.75
70314;BME280;57725;47.526;18.986;2022-11-15T01:48:46;100229.56;;;8.66;93.05
70314;BME280;57725;47.526;18.986;2022-11-15T01:51:15;100227.88;;;8.65;92.98
70314;BME280;57725;47.526;18.986;2022-11-15T01:53:46;100230.47;;;8.65;92.93
70314;BME280;57725;47.526;18.986;2022-11-15T01:56:18;100232.22;;;8.64;93.10
70314;BME280;57725;47.526;18.986;2022-11-15T01:58:45;100231.31;;;8.65;92.87
70314;BME280;57725;47.526;18.986;2022-11-15T02:01:12;100229.63;;;8.64;92.69
70314;BME280;57725;47.526;18.986;2022-11-15T02:03:49;100225.31;;;8.63;92.86
70314;BME280;57725;47.526;18.986;2022-11-15T02:06:17;100220.06;;;8.65;92.81
70314;BME280;57725;47.526;18.986;2022-11-15T02:08:44;100215.72;;;8.64;92.80
70314;BME280;57725;47.526;18.986;2022-11-15T02:11:14;100213.13;;;8.64;92.90
70314;BME280;57725;47.526;18.986;2022-11-15T02:13:39;100221.81;;;8.64;93.16
70314;BME280;57725;47.526;18.986;2022-11-15T02:18:43;100214.03;;;8.63;92.77
70314;BME280;57725;47.526;18.986;2022-11-15T02:21:32;100208.78;;;8.64;92.80
70314;BME280;57725;47.526;18.986;2022-11-15T02:29:41;100201.00;;;8.63;93.23
70314;BME280;57725;47.526;18.986;2022-11-15T02:32:19;100205.34;;;8.62;92.83
70314;BME280;57725;47.526;18.986;2022-11-15T02:35:01;100201.00;;;8.63;93.19
70314;BME280;57725;47.526;18.986;2022-11-15T02:37:56;100202.75;;;8.62;92.89
70314;BME280;57725;47.526;18.986;2022-11-15T02:40:37;100203.59;;;8.63;92.84
70314;BME280;57725;47.526;18.986;2022-11-15T02:43:09;100195.78;;;8.63;92.77
70314;BME280;57725;47.526;18.986;2022-11-15T02:46:10;100194.94;;;8.62;93.08
70314;BME280;57725;47.526;18.986;2022-11-15T02:48:40;100194.06;;;8.62;92.90
70314;BME280;57725;47.526;18.986;2022-11-15T02:51:09;100201.88;;;8.62;93.19
70314;BME280;57725;47.526;18.986;2022-11-15T02:53:35;100207.97;;;8.62;93.01
70314;BME280;57725;47.526;18.986;2022-11-15T02:56:00;100194.94;;;8.62;92.74
70314;BME280;57725;47.526;18.986;2022-11-15T03:06:49;100197.56;;;8.61;93.25
70314;BME280;57725;47.526;18.986;2022-11-15T03:11:48;100194.97;;;8.61;93.21
70314;BME280;57725;47.526;18.986;2022-11-15T03:14:25;100196.72;;;8.60;92.99
70314;BME280;57725;47.526;18.986;2022-11-15T03:19:43;100188.91;;;8.60;93.16
70314;BME280;57725;47.526;18.986;2022-11-15T03:22:16;100196.72;;;8.60;92.96
70314;BME280;57725;47.526;18.986;2022-11-15T03:24:43;100183.72;;;8.59;93.12
70314;BME280;57725;47.526;18.986;2022-11-15T03:27:15;100182.84;;;8.60;92.83
70314;BME280;57725;47.526;18.986;2022-11-15T03:29:46;100173.34;;;8.57;93.31
70314;BME280;57725;47.526;18.986;2022-11-15T03:32:21;100175.00;;;8.60;93.17
70314;BME280;57725;47.526;18.986;2022-11-15T03:34:55;100173.25;;;8.60;93.18
70314;BME280;57725;47.526;18.986;2022-11-15T03:37:27;100168.94;;;8.59;93.24
70314;BME280;57725;47.526;18.986;2022-11-15T03:39:56;100178.47;;;8.60;93.09
70314;BME280;57725;47.526;18.986;2022-11-15T03:42:36;100170.66;;;8.60;93.09
70314;BME280;57725;47.526;18.986;2022-11-15T03:45:16;100162.03;;;8.58;93.27
70314;BME280;57725;47.526;18.986;2022-11-15T03:50:25;100160.28;;;8.59;93.13
70314;BME280;57725;47.526;18.986;2022-11-15T03:52:53;100162.00;;;8.60;92.84
70314;BME280;57725;47.526;18.986;2022-11-15T03:55:20;100155.91;;;8.59;92.99
70314;BME280;57725;47.526;18.986;2022-11-15T03:57:50;100158.56;;;8.58;92.85
70314;BME280;57725;47.526;18.986;2022-11-15T04:00:19;100150.72;;;8.59;93.12
70314;BME280;57725;47.526;18.986;2022-11-15T04:02:49;100152.47;;;8.59;93.20
70314;BME280;57725;47.526;18.986;2022-11-15T04:05:14;100141.13;;;8.60;93.03
70314;BME280;57725;47.526;18.986;2022-11-15T04:07:42;100137.69;;;8.59;93.05
70314;BME280;57725;47.526;18.986;2022-11-15T04:10:10;100135.97;;;8.58;93.23
70314;BME280;57725;47.526;18.986;2022-11-15T04:12:38;100136.88;;;8.57;92.78
70314;BME280;57725;47.526;18.986;2022-11-15T04:20:15;100122.03;;;8.59;93.03
70314;BME280;57725;47.526;18.986;2022-11-15T04:23:04;100135.06;;;8.59;92.94
70314;BME280;57725;47.526;18.986;2022-11-15T04:25:53;100141.19;;;8.58;93.29
70314;BME280;57725;47.526;18.986;2022-11-15T04:28:19;100129.91;;;8.58;93.22
70314;BME280;57725;47.526;18.986;2022-11-15T04:30:47;100134.22;;;8.59;93.23
70314;BME280;57725;47.526;18.986;2022-11-15T04:33:15;100132.50;;;8.58;93.14
70314;BME280;57725;47.526;18.986;2022-11-15T04:35:40;100138.56;;;8.58;93.32
70314;BME280;57725;47.526;18.986;2022-11-15T04:38:08;100139.44;;;8.59;93.24
70314;BME280;57725;47.526;18.986;2022-11-15T04:40:36;100140.31;;;8.58;93.30
70314;BME280;57725;47.526;18.986;2022-11-15T04:43:04;100129.00;;;8.59;93.18
70314;BME280;57725;47.526;18.986;2022-11-15T04:45:30;100131.66;;;8.57;92.80
70314;BME280;57725;47.526;18.986;2022-11-15T04:47:58;100122.09;;;8.58;93.17
70314;BME280;57725;47.526;18.986;2022-11-15T04:50:23;100118.63;;;8.57;93.29
70314;BME280;57725;47.526;18.986;2022-11-15T04:52:55;100116.88;;;8.58;93.03
70314;BME280;57725;47.526;18.986;2022-11-15T04:55:22;100109.06;;;8.58;93.15
70314;BME280;57725;47.526;18.986;2022-11-15T04:57:57;100098.63;;;8.58;93.02
70314;BME280;57725;47.526;18.986;2022-11-15T05:00:23;100102.94;;;8.59;92.86
70314;BME280;57725;47.526;18.986;2022-11-15T05:02:48;100109.91;;;8.58;93.32
70314;BME280;57725;47.526;18.986;2022-11-15T05:05:34;100107.31;;;8.58;93.24
70314;BME280;57725;47.526;18.986;2022-11-15T05:08:05;100107.31;;;8.58;92.92
70314;BME280;57725;47.526;18.986;2022-11-15T05:10:30;100112.50;;;8.58;93.30
70314;BME280;57725;47.526;18.986;2022-11-15T05:12:55;100114.25;;;8.58;92.94
70314;BME280;57725;47.526;18.986;2022-11-15T05:15:21;100113.41;;;8.57;93.07
70314;BME280;57725;47.526;18.986;2022-11-15T05:17:46;100116.88;;;8.58;92.93
70314;BME280;57725;47.526;18.986;2022-11-15T05:20:14;100116.00;;;8.57;93.13
70314;BME280;57725;47.526;18.986;2022-11-15T05:22:39;100112.59;;;8.55;93.15
70314;BME280;57725;47.526;18.986;2022-11-15T05:25:05;100116.88;;;8.58;93.03
70314;BME280;57725;47.526;18.986;2022-11-15T05:27:32;100115.16;;;8.57;93.15
70314;BME280;57725;47.526;18.986;2022-11-15T05:29:57;100111.69;;;8.56;93.13
70314;BME280;57725;47.526;18.986;2022-11-15T05:32:23;100113.41;;;8.57;93.16
70314;BME280;57725;47.526;18.986;2022-11-15T05:34:49;100109.09;;;8.56;92.90
70314;BME280;57725;47.526;18.986;2022-11-15T05:37:15;100096.91;;;8.57;93.15
70314;BME280;57725;47.526;18.986;2022-11-15T05:39:41;100096.91;;;8.57;93.07
70314;BME280;57725;47.526;18.986;2022-11-15T05:42:11;100106.50;;;8.56;93.17
70314;BME280;57725;47.526;18.986;2022-11-15T05:44:39;100099.53;;;8.57;93.21
70314;BME280;57725;47.526;18.986;2022-11-15T05:47:09;100096.91;;;8.57;93.03
70314;BME280;57725;47.526;18.986;2022-11-15T05:49:38;100107.34;;;8.57;93.35
70314;BME280;57725;47.526;18.986;2022-11-15T05:52:07;100107.34;;;8.57;93.01
70314;BME280;57725;47.526;18.986;2022-11-15T05:54:36;100104.75;;;8.57;93.06
70314;BME280;57725;47.526;18.986;2022-11-15T05:57:04;100108.25;;;8.56;93.24
70314;BME280;57725;47.526;18.986;2022-11-15T05:59:31;100104.75;;;8.57;93.34
70314;BME280;57725;47.526;18.986;2022-11-15T06:02:02;100100.41;;;8.56;92.97
70314;BME280;57725;47.526;18.986;2022-11-15T06:04:28;100099.56;;;8.55;93.35
70314;BME280;57725;47.526;18.986;2022-11-15T06:06:53;100099.56;;;8.55;93.16
70314;BME280;57725;47.526;18.986;2022-11-15T06:09:18;100106.53;;;8.55;92.99
70314;BME280;57725;47.526;18.986;2022-11-15T06:11:44;100103.88;;;8.56;93.03
70314;BME280;57725;47.526;18.986;2022-11-15T06:14:09;100104.75;;;8.57;93.11
70314;BME280;57725;47.526;18.986;2022-11-15T06:16:34;100096.06;;;8.56;93.16
70314;BME280;57725;47.526;18.986;2022-11-15T06:19:02;100088.25;;;8.56;92.91
70314;BME280;57725;47.526;18.986;2022-11-15T06:21:28;100083.03;;;8.56;93.13
70314;BME280;57725;47.526;18.986;2022-11-15T06:23:54;100083.03;;;8.56;93.13
70314;BME280;57725;47.526;18.986;2022-11-15T06:26:22;100085.63;;;8.56;93.25
70314;BME280;57725;47.526;18.986;2022-11-15T06:28:49;100104.78;;;8.55;93.13
70314;BME280;57725;47.526;18.986;2022-11-15T06:31:15;100100.47;;;8.54;93.16
70314;BME280;57725;47.526;18.986;2022-11-15T06:33:40;100109.09;;;8.56;93.03
70314;BME280;57725;47.526;18.986;2022-11-15T06:36:08;100117.78;;;8.57;93.11
70314;BME280;57725;47.526;18.986;2022-11-15T06:38:36;100115.19;;;8.55;93.19
70314;BME280;57725;47.526;18.986;2022-11-15T06:41:08;100116.06;;;8.56;93.19
70314;BME280;57725;47.526;18.986;2022-11-15T06:43:34;100112.56;;;8.57;93.47
70314;BME280;57725;47.526;18.986;2022-11-15T06:46:01;100110.84;;;8.56;93.12
70314;BME280;57725;47.526;18.986;2022-11-15T06:48:27;100110.00;;;8.55;93.31
70314;BME280;57725;47.526;18.986;2022-11-15T06:51:00;100109.09;;;8.56;93.35
70314;BME280;57725;47.526;18.986;2022-11-15T06:53:26;100103.88;;;8.56;93.10
70314;BME280;57725;47.526;18.986;2022-11-15T06:55:52;100104.78;;;8.55;93.36
70314;BME280;57725;47.526;18.986;2022-11-15T06:58:17;100112.59;;;8.55;93.11
70314;BME280;57725;47.526;18.986;2022-11-15T07:00:43;100109.13;;;8.55;93.14
70314;BME280;57725;47.526;18.986;2022-11-15T07:03:09;100103.03;;;8.56;93.23
70314;BME280;57725;47.526;18.986;2022-11-15T07:05:37;100093.47;;;8.56;93.54
70314;BME280;57725;47.526;18.986;2022-11-15T07:08:03;100090.91;;;8.55;93.28
70314;BME280;57725;47.526;18.986;2022-11-15T07:10:28;100099.56;;;8.55;93.36
70314;BME280;57725;47.526;18.986;2022-11-15T07:12:55;100101.31;;;8.55;93.43
70314;BME280;57725;47.526;18.986;2022-11-15T07:15:23;100105.63;;;8.56;93.43
70314;BME280;57725;47.526;18.986;2022-11-15T07:17:48;100090.91;;;8.55;93.11
70314;BME280;57725;47.526;18.986;2022-11-15T07:20:14;100083.94;;;8.55;93.30
70314;BME280;57725;47.526;18.986;2022-11-15T07:22:42;100090.00;;;8.56;93.43
70314;BME280;57725;47.526;18.986;2022-11-15T07:25:09;100084.78;;;8.56;93.16
70314;BME280;57725;47.526;18.986;2022-11-15T07:27:40;100081.31;;;8.55;93.20
70314;BME280;57725;47.526;18.986;2022-11-15T07:30:05;100085.63;;;8.56;93.29
70314;BME280;57725;47.526;18.986;2022-11-15T07:32:34;100081.28;;;8.57;93.43
70314;BME280;57725;47.526;18.986;2022-11-15T07:34:59;100076.97;;;8.56;93.22
70314;BME280;57725;47.526;18.986;2022-11-15T07:37:25;100079.56;;;8.56;93.44
70314;BME280;57725;47.526;18.986;2022-11-15T07:39:50;100093.47;;;8.56;93.52
70314;BME280;57725;47.526;18.986;2022-11-15T07:42:15;100089.09;;;8.57;93.31
70314;BME280;57725;47.526;18.986;2022-11-15T07:45:02;100085.63;;;8.56;93.24
70314;BME280;57725;47.526;18.986;2022-11-15T07:47:30;100079.56;;;8.56;93.45
70314;BME280;57725;47.526;18.986;2022-11-15T07:49:55;100084.78;;;8.56;93.33
70314;BME280;57725;47.526;18.986;2022-11-15T07:52:23;100077.81;;;8.56;93.43
70314;BME280;57725;47.526;18.986;2022-11-15T07:54:50;100075.22;;;8.56;93.53
70314;BME280;57725;47.526;18.986;2022-11-15T07:57:25;100079.56;;;8.56;93.41
70314;BME280;57725;47.526;18.986;2022-11-15T07:59:51;100075.22;;;8.56;93.31
70314;BME280;57725;47.526;18.986;2022-11-15T08:02:16;100080.44;;;8.56;93.43
70314;BME280;57725;47.526;18.986;2022-11-15T08:04:44;100080.44;;;8.56;93.51
70314;BME280;57725;47.526;18.986;2022-11-15T08:07:12;100082.13;;;8.57;94.07
70314;BME280;57725;47.526;18.986;2022-11-15T08:09:38;100070.88;;;8.57;93.35
70314;BME280;57725;47.526;18.986;2022-11-15T08:12:06;100065.69;;;8.55;93.50
70314;BME280;57725;47.526;18.986;2022-11-15T08:14:31;100059.59;;;8.56;93.33
70314;BME280;57725;47.526;18.986;2022-11-15T08:16:59;100050.00;;;8.57;93.32
70314;BME280;57725;47.526;18.986;2022-11-15T08:19:27;100058.69;;;8.57;93.35
70314;BME280;57725;47.526;18.986;2022-11-15T08:21:55;100058.69;;;8.57;93.52
70314;BME280;57725;47.526;18.986;2022-11-15T08:24:20;100054.38;;;8.56;93.52
70314;BME280;57725;47.526;18.986;2022-11-15T08:26:45;100047.41;;;8.57;93.44
70314;BME280;57725;47.526;18.986;2022-11-15T08:29:13;100049.13;;;8.58;93.43
70314;BME280;57725;47.526;18.986;2022-11-15T08:31:38;100050.88;;;8.57;93.42
70314;BME280;57725;47.526;18.986;2022-11-15T08:34:07;100040.44;;;8.57;93.29
70314;BME280;57725;47.526;18.986;2022-11-15T08:36:32;100021.41;;;8.55;93.59
70314;BME280;57725;47.526;18.986;2022-11-15T08:38:58;100034.34;;;8.58;93.72
70314;BME280;57725;47.526;18.986;2022-11-15T08:43:53;100017.88;;;8.56;93.54
70314;BME280;57725;47.526;18.986;2022-11-15T08:46:20;100023.06;;;8.58;93.50
70314;BME280;57725;47.526;18.986;2022-11-15T08:48:48;100020.44;;;8.58;93.81
70314;BME280;57725;47.526;18.986;2022-11-15T08:51:20;100025.66;;;8.58;93.70
70314;BME280;57725;47.526;18.986;2022-11-15T08:53:46;100021.31;;;8.58;93.62
70314;BME280;57725;47.526;18.986;2022-11-15T08:56:13;100016.09;;;8.58;93.57
70314;BME280;57725;47.526;18.986;2022-11-15T08:58:41;100016.09;;;8.58;93.61
70314;BME280;57725;47.526;18.986;2022-11-15T09:01:21;100020.44;;;8.58;93.71
70314;BME280;57725;47.526;18.986;2022-11-15T09:03:47;100018.69;;;8.58;93.71
70314;BME280;57725;47.526;18.986;2022-11-15T09:06:12;100022.16;;;8.59;93.47
70314;BME280;57725;47.526;18.986;2022-11-15T09:08:43;100019.56;;;8.59;93.79
70314;BME280;57725;47.526;18.986;2022-11-15T09:11:09;100016.09;;;8.58;93.67
70314;BME280;57725;47.526;18.986;2022-11-15T09:13:36;100009.13;;;8.59;93.59
70314;BME280;57725;47.526;18.986;2022-11-15T09:16:08;100003.91;;;8.59;93.83
70314;BME280;57725;47.526;18.986;2022-11-15T09:18:37;99997.81;;;8.60;93.88
70314;BME280;57725;47.526;18.986;2022-11-15T09:21:04;99996.09;;;8.59;93.88
70314;BME280;57725;47.526;18.986;2022-11-15T09:23:30;99997.81;;;8.60;93.55
70314;BME280;57725;47.526;18.986;2022-11-15T09:26:00;99986.53;;;8.59;93.47
70314;BME280;57725;47.526;18.986;2022-11-15T09:28:27;99987.38;;;8.60;93.85
70314;BME280;57725;47.526;18.986;2022-11-15T09:30:56;99983.88;;;8.61;93.95
70314;BME280;57725;47.526;18.986;2022-11-15T09:33:21;99976.97;;;8.60;93.57
70314;BME280;57725;47.526;18.986;2022-11-15T09:35:52;99982.16;;;8.60;93.83
70314;BME280;57725;47.526;18.986;2022-11-15T09:38:17;99977.81;;;8.60;94.02
70314;BME280;57725;47.526;18.986;2022-11-15T09:40:45;99984.72;;;8.61;93.93
70314;BME280;57725;47.526;18.986;2022-11-15T09:43:28;99984.78;;;8.60;93.77
70314;BME280;57725;47.526;18.986;2022-11-15T09:51:33;99976.91;;;8.61;93.75
70314;BME280;57725;47.526;18.986;2022-11-15T09:56:31;99973.41;;;8.62;93.65
70314;BME280;57725;47.526;18.986;2022-11-15T10:04:57;99972.59;;;8.60;93.65
70314;BME280;57725;47.526;18.986;2022-11-15T10:07:37;99971.69;;;8.61;93.61
70314;BME280;57725;47.526;18.986;2022-11-15T10:12:44;99953.41;;;8.63;94.08
70314;BME280;57725;47.526;18.986;2022-11-15T10:15:14;99960.38;;;8.62;93.78
70314;BME280;57725;47.526;18.986;2022-11-15T10:20:25;99952.50;;;8.64;93.63
70314;BME280;57725;47.526;18.986;2022-11-15T10:27:52;99940.34;;;8.64;93.74
70314;BME280;57725;47.526;18.986;2022-11-15T10:30:20;99938.56;;;8.65;93.84
70314;BME280;57725;47.526;18.986;2022-11-15T10:32:47;99925.53;;;8.65;93.66
70314;BME280;57725;47.526;18.986;2022-11-15T10:35:27;99918.56;;;8.65;93.95
70314;BME280;57725;47.526;18.986;2022-11-15T10:38:07;99915.94;;;8.65;94.08
70314;BME280;57725;47.526;18.986;2022-11-15T10:40:34;99920.34;;;8.65;94.05
70314;BME280;57725;47.526;18.986;2022-11-15T10:43:26;99919.41;;;8.66;93.99
70314;BME280;57725;47.526;18.986;2022-11-15T10:45:51;99918.50;;;8.67;93.97
70314;BME280;57725;47.526;18.986;2022-11-15T10:50:44;99908.97;;;8.66;93.87
70314;BME280;57725;47.526;18.986;2022-11-15T10:53:32;99908.06;;;8.67;93.90
70314;BME280;57725;47.526;18.986;2022-11-15T10:56:05;99897.69;;;8.65;93.84
70314;BME280;57725;47.526;18.986;2022-11-15T10:58:38;99900.22;;;8.68;94.15
70314;BME280;57725;47.526;18.986;2022-11-15T11:01:18;99888.06;;;8.67;93.95
70314;BME280;57725;47.526;18.986;2022-11-15T11:03:57;99886.31;;;8.68;93.82
70314;BME280;57725;47.526;18.986;2022-11-15T11:06:27;99883.72;;;8.68;93.58
70314;BME280;57725;47.526;18.986;2022-11-15T11:09:22;99876.75;;;8.68;93.76
70314;BME280;57725;47.526;18.986;2022-11-15T11:11:50;99881.97;;;8.68;93.91
70314;BME280;57725;47.526;18.986;2022-11-15T11:14:33;99876.75;;;8.68;94.16
70314;BME280;57725;47.526;18.986;2022-11-15T11:28:39;99868.88;;;8.70;93.94
70314;BME280;57725;47.526;18.986;2022-11-15T11:33:52;99859.31;;;8.70;93.81
70314;BME280;57725;47.526;18.986;2022-11-15T11:39:34;99855.81;;;8.71;94.15
70314;BME280;57725;47.526;18.986;2022-11-15T11:42:17;99849.78;;;8.69;94.26
70314;BME280;57725;47.526;18.986;2022-11-15T11:47:34;99844.53;;;8.71;93.72
70314;BME280;57725;47.526;18.986;2022-11-15T11:55:56;99826.22;;;8.73;93.97
70314;BME280;57725;47.526;18.986;2022-11-15T11:58:29;99819.31;;;8.71;93.88
70314;BME280;57725;47.526;18.986;2022-11-15T12:03:46;99810.59;;;8.73;94.01
70314;BME280;57725;47.526;18.986;2022-11-15T12:06:33;99820.13;;;8.74;93.72
70314;BME280;57725;47.526;18.986;2022-11-15T12:09:02;99812.28;;;8.74;93.94
70314;BME280;57725;47.526;18.986;2022-11-15T12:11:35;99802.72;;;8.74;94.15
70314;BME280;57725;47.526;18.986;2022-11-15T12:14:09;99798.34;;;8.75;94.10
70314;BME280;57725;47.526;18.986;2022-11-15T12:16:38;99789.69;;;8.74;93.95
70314;BME280;57725;47.526;18.986;2022-11-15T12:19:07;99791.38;;;8.75;94.24
70314;BME280;57725;47.526;18.986;2022-11-15T12:24:27;99782.72;;;8.75;94.32
70314;BME280;57725;47.526;18.986;2022-11-15T12:27:04;99781.81;;;8.76;94.24
70314;BME280;57725;47.526;18.986;2022-11-15T12:29:38;99780.97;;;8.75;93.93
70314;BME280;57725;47.526;18.986;2022-11-15T12:32:11;99779.22;;;8.76;94.28
70314;BME280;57725;47.526;18.986;2022-11-15T12:34:46;99783.53;;;8.77;94.31
70314;BME280;57725;47.526;18.986;2022-11-15T12:37:54;99789.56;;;8.77;94.21
70314;BME280;57725;47.526;18.986;2022-11-15T12:45:40;99763.47;;;8.77;93.90
70314;BME280;57725;47.526;18.986;2022-11-15T12:58:56;99752.16;;;8.78;93.99
70314;BME280;57725;47.526;18.986;2022-11-15T13:06:48;99738.28;;;8.78;93.89
70314;BME280;57725;47.526;18.986;2022-11-15T13:12:08;99743.47;;;8.78;94.29
70314;BME280;57725;47.526;18.986;2022-11-15T13:28:08;99741.63;;;8.81;94.15
70314;BME280;57725;47.526;18.986;2022-11-15T13:30:36;99741.63;;;8.81;94.02
70314;BME280;57725;47.526;18.986;2022-11-15T13:33:16;99739.06;;;8.80;94.12
70314;BME280;57725;47.526;18.986;2022-11-15T13:35:47;99733.81;;;8.81;94.06
70314;BME280;57725;47.526;18.986;2022-11-15T13:38:43;99730.34;;;8.81;94.25
70314;BME280;57725;47.526;18.986;2022-11-15T13:41:32;99731.19;;;8.81;94.52
70314;BME280;57725;47.526;18.986;2022-11-15T13:44:02;99726.84;;;8.82;94.12
70314;BME280;57725;47.526;18.986;2022-11-15T13:46:32;99723.38;;;8.81;94.17
70314;BME280;57725;47.526;18.986;2022-11-15T13:49:08;99719.88;;;8.82;94.36
70314;BME280;57725;47.526;18.986;2022-11-15T13:51:53;99708.59;;;8.82;94.12
70314;BME280;57725;47.526;18.986;2022-11-15T13:57:01;99698.16;;;8.82;94.46
70314;BME280;57725;47.526;18.986;2022-11-15T13:59:33;99697.19;;;8.84;94.07
70314;BME280;57725;47.526;18.986;2022-11-15T14:02:03;99697.31;;;8.81;94.16
70314;BME280;57725;47.526;18.986;2022-11-15T14:04:37;99694.66;;;8.83;94.23
70314;BME280;57725;47.526;18.986;2022-11-15T14:07:03;99692.03;;;8.83;94.30
70314;BME280;57725;47.526;18.986;2022-11-15T14:09:30;99689.38;;;8.84;94.41
70314;BME280;57725;47.526;18.986;2022-11-15T14:11:58;99691.09;;;8.85;94.18
70314;BME280;57725;47.526;18.986;2022-11-15T14:14:25;99686.78;;;8.84;94.03
70314;BME280;57725;47.526;18.986;2022-11-15T14:16:56;99692.00;;;8.84;94.15
70314;BME280;57725;47.526;18.986;2022-11-15T14:27:30;99680.59;;;8.87;94.29
70314;BME280;57725;47.526;18.986;2022-11-15T14:29:56;99675.38;;;8.87;94.21
70314;BME280;57725;47.526;18.986;2022-11-15T14:34:53;99666.72;;;8.86;93.72
70314;BME280;57725;47.526;18.986;2022-11-15T14:39:46;99664.97;;;8.87;94.36
70314;BME280;57725;47.526;18.986;2022-11-15T14:42:14;99668.41;;;8.87;94.30
70314;BME280;57725;47.526;18.986;2022-11-15T14:44:39;99664.97;;;8.87;94.33
70314;BME280;57725;47.526;18.986;2022-11-15T14:47:05;99659.75;;;8.87;94.18
70314;BME280;57725;47.526;18.986;2022-11-15T14:49:30;99657.97;;;8.87;94.20
70314;BME280;57725;47.526;18.986;2022-11-15T14:51:55;99645.81;;;8.88;94.24
70314;BME280;57725;47.526;18.986;2022-11-15T14:54:21;99654.47;;;8.88;94.16
70314;BME280;57725;47.526;18.986;2022-11-15T14:56:46;99651.88;;;8.88;94.03
70314;BME280;57725;47.526;18.986;2022-11-15T14:59:13;99646.72;;;8.87;93.98
70314;BME280;57725;47.526;18.986;2022-11-15T15:01:39;99655.38;;;8.87;93.98
70314;BME280;57725;47.526;18.986;2022-11-15T15:04:09;99648.41;;;8.88;94.01
70314;BME280;57725;47.526;18.986;2022-11-15T15:06:35;99660.50;;;8.89;93.97
70314;BME280;57725;47.526;18.986;2022-11-15T15:09:00;99653.53;;;8.89;94.19
70314;BME280;57725;47.526;18.986;2022-11-15T15:11:30;99651.78;;;8.90;94.08
70314;BME280;57725;47.526;18.986;2022-11-15T15:13:55;99639.66;;;8.89;94.11
70314;BME280;57725;47.526;18.986;2022-11-15T15:16:23;99644.81;;;8.90;94.50
70314;BME280;57725;47.526;18.986;2022-11-15T15:18:49;99633.53;;;8.90;94.18
70314;BME280;57725;47.526;18.986;2022-11-15T15:21:26;99637.91;;;8.89;93.98
70314;BME280;57725;47.526;18.986;2022-11-15T15:23:56;99632.78;;;8.88;94.16
70314;BME280;57725;47.526;18.986;2022-11-15T15:26:24;99636.13;;;8.90;94.25
70314;BME280;57725;47.526;18.986;2022-11-15T15:28:52;99637.91;;;8.89;94.24
70314;BME280;57725;47.526;18.986;2022-11-15T15:31:18;99635.22;;;8.91;94.12